sensor_id;sensor_type;location;lat;lon;timestamp;P1;durP1;ratioP1;P2;durP2;ratioP2
11839;SDS011;5979;50.800;4.904;2023-07-31T00:00:48;10.43;;;4.65;;
11839;SDS011;5979;50.800;4.904;2023-07-31T00:03:14;5.97;;;3.85;;
11839;SDS011;5979;50.800;4.904;2023-07-31T00:05:39;6.97;;;4.38;;
11839;SDS011;5979;50.800;4.904;2023-07-31T00:08:05;5.80;;;4.18;;
11839;SDS011;5979;50.800;4.904;2023-07-31T00:10:30;7.43;;;4.13;;
11839;SDS011;5979;50.800;4.904;2023-07-31T00:12:56;5.72;;;3.67;;
11839;SDS011;5979;50.800;4.904;2023-07-31T00:15:22;6.32;;;4.15;;
11839;SDS011;5979;50.800;4.904;2023-07-31T00:17:47;7.25;;;3.78;;
11839;SDS011;5979;50.800;4.904;2023-07-31T00:20:13;8.13;;;4.10;;
11839;SDS011;5979;50.800;4.904;2023-07-31T00:22:38;4.88;;;3.83;;
11839;SDS011;5979;50.800;4.904;2023-07-31T00:25:04;7.47;;;4.65;;
11839;SDS011;5979;50.800;4.904;2023-07-31T00:27:31;6.75;;;4.22;;
11839;SDS011;5979;50.800;4.904;2023-07-31T00:29:57;6.80;;;4.07;;
11839;SDS011;5979;50.800;4.904;2023-07-31T00:32:23;9.52;;;4.13;;
11839;SDS011;5979;50.800;4.904;2023-07-31T00:34:48;7.40;;;4.00;;
11839;SDS011;5979;50.800;4.904;2023-07-31T00:37:14;5.97;;;4.07;;
11839;SDS011;5979;50.800;4.904;2023-07-31T00:39:40;11.02;;;4.53;;
11839;SDS011;5979;50.800;4.904;2023-07-31T00:42:06;8.20;;;4.55;;
11839;SDS011;5979;50.800;4.904;2023-07-31T00:44:32;6.45;;;3.95;;
11839;SDS011;5979;50.800;4.904;2023-07-31T00:46:58;4.25;;;3.85;;
11839;SDS011;5979;50.800;4.904;2023-07-31T00:49:24;7.43;;;4.38;;
11839;SDS011;5979;50.800;4.904;2023-07-31T00:51:50;7.70;;;4.43;;
11839;SDS011;5979;50.800;4.904;2023-07-31T00:54:17;6.40;;;3.63;;
11839;SDS011;5979;50.800;4.904;2023-07-31T00:56:43;6.40;;;4.28;;
11839;SDS011;5979;50.800;4.904;2023-07-31T00:59:10;8.68;;;4.65;;
11839;SDS011;5979;50.800;4.904;2023-07-31T01:01:36;7.50;;;4.53;;
11839;SDS011;5979;50.800;4.904;2023-07-31T01:04:02;7.43;;;4.25;;
11839;SDS011;5979;50.800;4.904;2023-07-31T01:11:58;9.70;;;4.32;;
11839;SDS011;5979;50.800;4.904;2023-07-31T01:14:26;7.28;;;4.43;;
11839;SDS011;5979;50.800;4.904;2023-07-31T01:16:52;6.32;;;3.85;;
11839;SDS011;5979;50.800;4.904;2023-07-31T01:19:19;7.65;;;4.63;;
11839;SDS011;5979;50.800;4.904;2023-07-31T01:24:59;8.40;;;4.63;;
11839;SDS011;5979;50.800;4.904;2023-07-31T01:27:39;12.50;;;4.80;;
11839;SDS011;5979;50.800;4.904;2023-07-31T01:30:17;10.68;;;4.43;;
11839;SDS011;5979;50.800;4.904;2023-07-31T01:32:48;10.93;;;4.63;;
11839;SDS011;5979;50.800;4.904;2023-07-31T01:35:14;7.85;;;4.68;;
11839;SDS011;5979;50.800;4.904;2023-07-31T01:37:40;9.70;;;4.75;;
11839;SDS011;5979;50.800;4.904;2023-07-31T01:40:06;6.35;;;4.35;;
11839;SDS011;5979;50.800;4.904;2023-07-31T01:42:32;5.45;;;4.28;;
11839;SDS011;5979;50.800;4.904;2023-07-31T01:44:57;5.03;;;4.25;;
11839;SDS011;5979;50.800;4.904;2023-07-31T01:47:23;8.10;;;4.40;;
11839;SDS011;5979;50.800;4.904;2023-07-31T01:49:49;7.15;;;4.78;;
11839;SDS011;5979;50.800;4.904;2023-07-31T01:52:14;11.10;;;5.57;;
11839;SDS011;5979;50.800;4.904;2023-07-31T01:54:40;6.28;;;4.50;;
11839;SDS011;5979;50.800;4.904;2023-07-31T01:57:06;5.70;;;4.57;;
11839;SDS011;5979;50.800;4.904;2023-07-31T01:59:32;6.75;;;4.75;;
11839;SDS011;5979;50.800;4.904;2023-07-31T02:01:57;6.80;;;4.55;;
11839;SDS011;5979;50.800;4.904;2023-07-31T02:04:23;8.93;;;4.88;;
11839;SDS011;5979;50.800;4.904;2023-07-31T02:06:48;6.28;;;4.63;;
11839;SDS011;5979;50.800;4.904;2023-07-31T02:09:14;5.03;;;4.50;;
11839;SDS011;5979;50.800;4.904;2023-07-31T02:11:40;8.18;;;4.65;;
11839;SDS011;5979;50.800;4.904;2023-07-31T02:14:05;6.45;;;4.63;;
11839;SDS011;5979;50.800;4.904;2023-07-31T02:16:31;5.40;;;4.50;;
11839;SDS011;5979;50.800;4.904;2023-07-31T02:18:57;6.60;;;4.88;;
11839;SDS011;5979;50.800;4.904;2023-07-31T02:21:22;8.30;;;4.70;;
11839;SDS011;5979;50.800;4.904;2023-07-31T02:23:48;6.97;;;4.88;;
11839;SDS011;5979;50.800;4.904;2023-07-31T02:26:13;8.80;;;4.30;;
11839;SDS011;5979;50.800;4.904;2023-07-31T02:28:39;6.85;;;4.40;;
11839;SDS011;5979;50.800;4.904;2023-07-31T02:31:07;9.25;;;4.55;;
11839;SDS011;5979;50.800;4.904;2023-07-31T02:33:33;5.78;;;4.60;;
11839;SDS011;5979;50.800;4.904;2023-07-31T02:35:59;6.90;;;5.38;;
11839;SDS011;5979;50.800;4.904;2023-07-31T02:38:24;9.02;;;5.00;;
11839;SDS011;5979;50.800;4.904;2023-07-31T02:40:50;8.75;;;4.80;;
11839;SDS011;5979;50.800;4.904;2023-07-31T02:43:16;5.88;;;4.70;;
11839;SDS011;5979;50.800;4.904;2023-07-31T02:45:41;4.30;;;3.85;;
11839;SDS011;5979;50.800;4.904;2023-07-31T02:48:07;7.05;;;3.92;;
11839;SDS011;5979;50.800;4.904;2023-07-31T02:50:33;5.78;;;4.47;;
11839;SDS011;5979;50.800;4.904;2023-07-31T02:52:58;5.43;;;4.20;;
11839;SDS011;5979;50.800;4.904;2023-07-31T02:55:24;6.65;;;4.00;;
11839;SDS011;5979;50.800;4.904;2023-07-31T02:57:50;4.72;;;3.88;;
11839;SDS011;5979;50.800;4.904;2023-07-31T03:00:17;4.43;;;3.92;;
11839;SDS011;5979;50.800;4.904;2023-07-31T03:02:43;8.35;;;4.63;;
11839;SDS011;5979;50.800;4.904;2023-07-31T03:05:08;5.20;;;3.75;;
11839;SDS011;5979;50.800;4.904;2023-07-31T03:07:34;4.60;;;3.88;;
11839;SDS011;5979;50.800;4.904;2023-07-31T03:10:00;6.07;;;4.03;;
11839;SDS011;5979;50.800;4.904;2023-07-31T03:12:26;6.38;;;4.10;;
11839;SDS011;5979;50.800;4.904;2023-07-31T03:14:51;4.10;;;3.80;;
11839;SDS011;5979;50.800;4.904;2023-07-31T03:17:17;5.85;;;3.53;;
11839;SDS011;5979;50.800;4.904;2023-07-31T03:19:43;4.40;;;3.78;;
11839;SDS011;5979;50.800;4.904;2023-07-31T03:22:08;5.60;;;3.88;;
11839;SDS011;5979;50.800;4.904;2023-07-31T03:24:34;4.50;;;3.17;;
11839;SDS011;5979;50.800;4.904;2023-07-31T03:26:59;4.80;;;3.08;;
11839;SDS011;5979;50.800;4.904;2023-07-31T03:29:25;4.15;;;3.50;;
11839;SDS011;5979;50.800;4.904;2023-07-31T03:31:51;4.53;;;3.50;;
11839;SDS011;5979;50.800;4.904;2023-07-31T03:34:16;5.60;;;4.03;;
11839;SDS011;5979;50.800;4.904;2023-07-31T03:36:42;4.07;;;3.50;;
11839;SDS011;5979;50.800;4.904;2023-07-31T03:39:08;5.45;;;3.85;;
11839;SDS011;5979;50.800;4.904;2023-07-31T03:41:33;6.22;;;3.65;;
11839;SDS011;5979;50.800;4.904;2023-07-31T03:43:59;5.93;;;3.97;;
11839;SDS011;5979;50.800;4.904;2023-07-31T03:46:25;4.38;;;3.78;;
11839;SDS011;5979;50.800;4.904;2023-07-31T03:48:50;8.35;;;3.30;;
11839;SDS011;5979;50.800;4.904;2023-07-31T03:51:16;4.93;;;3.58;;
11839;SDS011;5979;50.800;4.904;2023-07-31T03:53:43;5.63;;;3.60;;
11839;SDS011;5979;50.800;4.904;2023-07-31T03:56:09;4.68;;;3.25;;
11839;SDS011;5979;50.800;4.904;2023-07-31T03:58:34;4.05;;;3.22;;
11839;SDS011;5979;50.800;4.904;2023-07-31T04:01:01;4.90;;;3.60;;
11839;SDS011;5979;50.800;4.904;2023-07-31T04:03:27;4.93;;;3.63;;
11839;SDS011;5979;50.800;4.904;2023-07-31T04:05:54;4.95;;;3.47;;
11839;SDS011;5979;50.800;4.904;2023-07-31T04:08:23;4.43;;;3.90;;
11839;SDS011;5979;50.800;4.904;2023-07-31T04:10:49;6.20;;;3.50;;
11839;SDS011;5979;50.800;4.904;2023-07-31T04:13:15;6.10;;;3.90;;
11839;SDS011;5979;50.800;4.904;2023-07-31T04:15:40;4.18;;;3.75;;
11839;SDS011;5979;50.800;4.904;2023-07-31T04:18:06;7.13;;;3.83;;
11839;SDS011;5979;50.800;4.904;2023-07-31T04:20:32;4.28;;;3.88;;
11839;SDS011;5979;50.800;4.904;2023-07-31T04:22:58;4.30;;;3.50;;
11839;SDS011;5979;50.800;4.904;2023-07-31T04:25:23;7.28;;;3.90;;
11839;SDS011;5979;50.800;4.904;2023-07-31T04:27:49;4.43;;;3.47;;
11839;SDS011;5979;50.800;4.904;2023-07-31T04:30:15;4.60;;;3.90;;
11839;SDS011;5979;50.800;4.904;2023-07-31T04:32:40;4.82;;;3.63;;
11839;SDS011;5979;50.800;4.904;2023-07-31T04:35:06;5.03;;;3.97;;
11839;SDS011;5979;50.800;4.904;2023-07-31T04:37:32;5.43;;;3.97;;
11839;SDS011;5979;50.800;4.904;2023-07-31T04:39:58;3.42;;;3.13;;
11839;SDS011;5979;50.800;4.904;2023-07-31T04:42:23;4.25;;;3.60;;
11839;SDS011;5979;50.800;4.904;2023-07-31T04:44:49;4.30;;;3.80;;
11839;SDS011;5979;50.800;4.904;2023-07-31T04:47:14;5.85;;;3.22;;
11839;SDS011;5979;50.800;4.904;2023-07-31T04:49:40;5.43;;;3.92;;
11839;SDS011;5979;50.800;4.904;2023-07-31T04:52:06;5.72;;;3.70;;
11839;SDS011;5979;50.800;4.904;2023-07-31T04:54:31;4.00;;;3.60;;
11839;SDS011;5979;50.800;4.904;2023-07-31T04:56:57;3.95;;;3.30;;
11839;SDS011;5979;50.800;4.904;2023-07-31T04:59:23;5.88;;;3.47;;
11839;SDS011;5979;50.800;4.904;2023-07-31T05:01:48;10.32;;;4.18;;
11839;SDS011;5979;50.800;4.904;2023-07-31T05:04:14;4.18;;;3.65;;
11839;SDS011;5979;50.800;4.904;2023-07-31T05:06:40;5.80;;;3.63;;
11839;SDS011;5979;50.800;4.904;2023-07-31T05:09:06;5.55;;;4.13;;
11839;SDS011;5979;50.800;4.904;2023-07-31T05:11:32;5.30;;;3.70;;
11839;SDS011;5979;50.800;4.904;2023-07-31T05:13:57;6.43;;;3.70;;
11839;SDS011;5979;50.800;4.904;2023-07-31T05:16:23;5.30;;;3.40;;
11839;SDS011;5979;50.800;4.904;2023-07-31T05:18:48;4.10;;;3.70;;
11839;SDS011;5979;50.800;4.904;2023-07-31T05:21:14;4.78;;;3.35;;
11839;SDS011;5979;50.800;4.904;2023-07-31T05:23:40;6.43;;;3.60;;
11839;SDS011;5979;50.800;4.904;2023-07-31T05:26:05;3.85;;;3.42;;
11839;SDS011;5979;50.800;4.904;2023-07-31T05:28:33;5.80;;;3.85;;
11839;SDS011;5979;50.800;4.904;2023-07-31T05:31:02;6.30;;;4.22;;
11839;SDS011;5979;50.800;4.904;2023-07-31T05:33:29;3.90;;;3.60;;
11839;SDS011;5979;50.800;4.904;2023-07-31T05:35:55;3.78;;;3.03;;
11839;SDS011;5979;50.800;4.904;2023-07-31T05:38:20;5.63;;;3.58;;
11839;SDS011;5979;50.800;4.904;2023-07-31T05:40:46;6.07;;;3.60;;
11839;SDS011;5979;50.800;4.904;2023-07-31T05:43:12;8.27;;;3.90;;
11839;SDS011;5979;50.800;4.904;2023-07-31T05:45:38;4.50;;;3.33;;
11839;SDS011;5979;50.800;4.904;2023-07-31T05:48:05;3.33;;;3.03;;
11839;SDS011;5979;50.800;4.904;2023-07-31T05:50:31;3.50;;;3.20;;
11839;SDS011;5979;50.800;4.904;2023-07-31T05:52:56;4.60;;;3.42;;
11839;SDS011;5979;50.800;4.904;2023-07-31T05:55:22;7.15;;;4.03;;
11839;SDS011;5979;50.800;4.904;2023-07-31T05:57:49;3.88;;;3.40;;
11839;SDS011;5979;50.800;4.904;2023-07-31T06:00:14;4.82;;;3.53;;
11839;SDS011;5979;50.800;4.904;2023-07-31T06:02:40;5.50;;;3.50;;
11839;SDS011;5979;50.800;4.904;2023-07-31T06:05:06;4.22;;;3.17;;
11839;SDS011;5979;50.800;4.904;2023-07-31T06:07:32;4.78;;;3.53;;
11839;SDS011;5979;50.800;4.904;2023-07-31T06:09:58;8.30;;;3.47;;
11839;SDS011;5979;50.800;4.904;2023-07-31T06:12:29;4.00;;;3.40;;
11839;SDS011;5979;50.800;4.904;2023-07-31T06:14:55;3.83;;;3.30;;
11839;SDS011;5979;50.800;4.904;2023-07-31T06:17:21;8.48;;;3.63;;
11839;SDS011;5979;50.800;4.904;2023-07-31T06:19:47;6.45;;;3.65;;
11839;SDS011;5979;50.800;4.904;2023-07-31T06:22:12;5.75;;;3.65;;
11839;SDS011;5979;50.800;4.904;2023-07-31T06:24:38;3.63;;;3.28;;
11839;SDS011;5979;50.800;4.904;2023-07-31T06:27:04;5.15;;;3.58;;
11839;SDS011;5979;50.800;4.904;2023-07-31T06:29:31;4.70;;;3.53;;
11839;SDS011;5979;50.800;4.904;2023-07-31T06:31:56;5.25;;;3.40;;
11839;SDS011;5979;50.800;4.904;2023-07-31T06:34:22;5.50;;;3.20;;
11839;SDS011;5979;50.800;4.904;2023-07-31T06:36:48;4.07;;;3.40;;
11839;SDS011;5979;50.800;4.904;2023-07-31T06:39:13;4.13;;;3.70;;
11839;SDS011;5979;50.800;4.904;2023-07-31T06:41:39;4.00;;;3.00;;
11839;SDS011;5979;50.800;4.904;2023-07-31T06:44:05;4.60;;;3.13;;
11839;SDS011;5979;50.800;4.904;2023-07-31T06:46:30;5.97;;;3.33;;
11839;SDS011;5979;50.800;4.904;2023-07-31T06:48:56;4.00;;;3.50;;
11839;SDS011;5979;50.800;4.904;2023-07-31T06:51:22;4.60;;;3.15;;
11839;SDS011;5979;50.800;4.904;2023-07-31T06:53:47;4.03;;;3.05;;
11839;SDS011;5979;50.800;4.904;2023-07-31T06:56:13;5.22;;;3.65;;
11839;SDS011;5979;50.800;4.904;2023-07-31T06:58:39;4.55;;;3.13;;
11839;SDS011;5979;50.800;4.904;2023-07-31T07:01:04;3.45;;;3.15;;
11839;SDS011;5979;50.800;4.904;2023-07-31T07:03:30;3.97;;;3.20;;
11839;SDS011;5979;50.800;4.904;2023-07-31T07:05:57;3.83;;;3.20;;
11839;SDS011;5979;50.800;4.904;2023-07-31T07:08:23;3.95;;;3.08;;
11839;SDS011;5979;50.800;4.904;2023-07-31T07:10:49;5.30;;;3.17;;
11839;SDS011;5979;50.800;4.904;2023-07-31T07:13:15;3.50;;;2.85;;
11839;SDS011;5979;50.800;4.904;2023-07-31T07:15:41;7.70;;;3.20;;
11839;SDS011;5979;50.800;4.904;2023-07-31T07:18:07;3.47;;;3.20;;
11839;SDS011;5979;50.800;4.904;2023-07-31T07:20:32;4.53;;;3.03;;
11839;SDS011;5979;50.800;4.904;2023-07-31T07:22:58;3.00;;;2.75;;
11839;SDS011;5979;50.800;4.904;2023-07-31T07:25:24;4.65;;;2.67;;
11839;SDS011;5979;50.800;4.904;2023-07-31T07:27:49;4.28;;;3.42;;
11839;SDS011;5979;50.800;4.904;2023-07-31T07:30:15;6.82;;;3.45;;
11839;SDS011;5979;50.800;4.904;2023-07-31T07:32:41;4.65;;;3.28;;
11839;SDS011;5979;50.800;4.904;2023-07-31T07:35:06;4.55;;;2.95;;
11839;SDS011;5979;50.800;4.904;2023-07-31T07:37:32;5.93;;;3.25;;
11839;SDS011;5979;50.800;4.904;2023-07-31T07:39:58;3.17;;;2.50;;
11839;SDS011;5979;50.800;4.904;2023-07-31T07:42:24;5.45;;;3.05;;
11839;SDS011;5979;50.800;4.904;2023-07-31T07:44:50;3.35;;;3.03;;
11839;SDS011;5979;50.800;4.904;2023-07-31T07:47:15;3.88;;;2.80;;
11839;SDS011;5979;50.800;4.904;2023-07-31T07:49:41;3.17;;;2.70;;
11839;SDS011;5979;50.800;4.904;2023-07-31T07:52:07;3.58;;;2.70;;
11839;SDS011;5979;50.800;4.904;2023-07-31T07:54:32;5.05;;;3.22;;
11839;SDS011;5979;50.800;4.904;2023-07-31T07:56:58;3.78;;;3.05;;
11839;SDS011;5979;50.800;4.904;2023-07-31T07:59:24;4.07;;;2.97;;
11839;SDS011;5979;50.800;4.904;2023-07-31T08:01:50;4.75;;;2.92;;
11839;SDS011;5979;50.800;4.904;2023-07-31T08:04:16;3.08;;;2.88;;
11839;SDS011;5979;50.800;4.904;2023-07-31T08:06:41;5.03;;;2.70;;
11839;SDS011;5979;50.800;4.904;2023-07-31T08:09:07;5.32;;;3.72;;
11839;SDS011;5979;50.800;4.904;2023-07-31T08:11:33;4.68;;;3.20;;
11839;SDS011;5979;50.800;4.904;2023-07-31T08:13:59;8.15;;;3.85;;
11839;SDS011;5979;50.800;4.904;2023-07-31T08:16:25;5.53;;;3.53;;
11839;SDS011;5979;50.800;4.904;2023-07-31T08:18:51;7.15;;;3.35;;
11839;SDS011;5979;50.800;4.904;2023-07-31T08:21:17;4.25;;;2.95;;
11839;SDS011;5979;50.800;4.904;2023-07-31T08:23:42;3.13;;;2.83;;
11839;SDS011;5979;50.800;4.904;2023-07-31T08:26:08;5.80;;;3.00;;
11839;SDS011;5979;50.800;4.904;2023-07-31T08:28:39;4.05;;;3.10;;
11839;SDS011;5979;50.800;4.904;2023-07-31T08:31:05;4.93;;;3.05;;
11839;SDS011;5979;50.800;4.904;2023-07-31T08:33:31;5.32;;;3.05;;
11839;SDS011;5979;50.800;4.904;2023-07-31T08:35:56;5.68;;;3.08;;
11839;SDS011;5979;50.800;4.904;2023-07-31T08:38:22;5.38;;;3.53;;
11839;SDS011;5979;50.800;4.904;2023-07-31T08:40:50;3.28;;;3.08;;
11839;SDS011;5979;50.800;4.904;2023-07-31T08:43:16;4.13;;;3.10;;
11839;SDS011;5979;50.800;4.904;2023-07-31T08:45:42;3.75;;;2.97;;
11839;SDS011;5979;50.800;4.904;2023-07-31T08:48:08;3.15;;;2.85;;
11839;SDS011;5979;50.800;4.904;2023-07-31T08:50:34;3.20;;;2.90;;
11839;SDS011;5979;50.800;4.904;2023-07-31T08:53:00;3.20;;;2.45;;
11839;SDS011;5979;50.800;4.904;2023-07-31T08:55:26;4.30;;;2.90;;
11839;SDS011;5979;50.800;4.904;2023-07-31T08:57:53;4.07;;;2.53;;
11839;SDS011;5979;50.800;4.904;2023-07-31T09:00:20;3.05;;;2.58;;
11839;SDS011;5979;50.800;4.904;2023-07-31T09:02:56;3.40;;;2.63;;
11839;SDS011;5979;50.800;4.904;2023-07-31T09:05:33;4.25;;;2.22;;
11839;SDS011;5979;50.800;4.904;2023-07-31T09:08:01;2.63;;;2.42;;
11839;SDS011;5979;50.800;4.904;2023-07-31T09:10:29;3.53;;;2.67;;
11839;SDS011;5979;50.800;4.904;2023-07-31T09:12:55;2.35;;;2.08;;
11839;SDS011;5979;50.800;4.904;2023-07-31T09:15:21;2.85;;;2.13;;
11839;SDS011;5979;50.800;4.904;2023-07-31T09:17:48;2.80;;;2.17;;
11839;SDS011;5979;50.800;4.904;2023-07-31T09:20:26;1.80;;;1.70;;
11839;SDS011;5979;50.800;4.904;2023-07-31T09:22:51;2.00;;;1.80;;
11839;SDS011;5979;50.800;4.904;2023-07-31T09:25:18;3.25;;;1.95;;
11839;SDS011;5979;50.800;4.904;2023-07-31T09:30:12;1.63;;;1.52;;
11839;SDS011;5979;50.800;4.904;2023-07-31T09:32:38;2.45;;;2.17;;
11839;SDS011;5979;50.800;4.904;2023-07-31T09:37:55;2.28;;;2.08;;
11839;SDS011;5979;50.800;4.904;2023-07-31T09:40:44;3.75;;;2.55;;
11839;SDS011;5979;50.800;4.904;2023-07-31T09:43:12;3.55;;;2.60;;
11839;SDS011;5979;50.800;4.904;2023-07-31T09:45:42;2.80;;;2.35;;
11839;SDS011;5979;50.800;4.904;2023-07-31T09:48:09;2.92;;;2.60;;
11839;SDS011;5979;50.800;4.904;2023-07-31T09:50:41;2.97;;;2.78;;
11839;SDS011;5979;50.800;4.904;2023-07-31T09:53:08;3.15;;;2.85;;
11839;SDS011;5979;50.800;4.904;2023-07-31T09:55:34;3.38;;;3.05;;
11839;SDS011;5979;50.800;4.904;2023-07-31T09:58:05;3.10;;;2.90;;
11839;SDS011;5979;50.800;4.904;2023-07-31T10:00:32;3.35;;;3.05;;
11839;SDS011;5979;50.800;4.904;2023-07-31T10:02:59;4.00;;;3.42;;
11839;SDS011;5979;50.800;4.904;2023-07-31T10:05:45;4.25;;;2.90;;
11839;SDS011;5979;50.800;4.904;2023-07-31T10:08:15;3.97;;;3.17;;
11839;SDS011;5979;50.800;4.904;2023-07-31T10:10:43;3.88;;;3.55;;
11839;SDS011;5979;50.800;4.904;2023-07-31T10:13:10;4.22;;;3.22;;
11839;SDS011;5979;50.800;4.904;2023-07-31T10:15:36;5.63;;;3.50;;
11839;SDS011;5979;50.800;4.904;2023-07-31T10:18:02;6.57;;;3.88;;
11839;SDS011;5979;50.800;4.904;2023-07-31T10:20:30;5.75;;;3.38;;
11839;SDS011;5979;50.800;4.904;2023-07-31T10:22:57;4.70;;;3.88;;
11839;SDS011;5979;50.800;4.904;2023-07-31T10:25:24;5.00;;;3.80;;
11839;SDS011;5979;50.800;4.904;2023-07-31T10:27:52;5.63;;;3.58;;
11839;SDS011;5979;50.800;4.904;2023-07-31T10:30:18;5.68;;;3.75;;
11839;SDS011;5979;50.800;4.904;2023-07-31T10:32:49;5.60;;;4.18;;
11839;SDS011;5979;50.800;4.904;2023-07-31T10:35:17;4.20;;;3.60;;
11839;SDS011;5979;50.800;4.904;2023-07-31T10:37:43;4.03;;;3.53;;
11839;SDS011;5979;50.800;4.904;2023-07-31T10:40:25;5.35;;;4.05;;
11839;SDS011;5979;50.800;4.904;2023-07-31T10:42:52;6.47;;;4.03;;
11839;SDS011;5979;50.800;4.904;2023-07-31T10:45:27;7.25;;;4.00;;
11839;SDS011;5979;50.800;4.904;2023-07-31T10:48:03;4.75;;;3.60;;
11839;SDS011;5979;50.800;4.904;2023-07-31T10:50:37;7.30;;;3.75;;
11839;SDS011;5979;50.800;4.904;2023-07-31T10:53:03;7.75;;;3.75;;
11839;SDS011;5979;50.800;4.904;2023-07-31T10:55:33;4.65;;;3.80;;
11839;SDS011;5979;50.800;4.904;2023-07-31T10:58:08;4.30;;;3.90;;
11839;SDS011;5979;50.800;4.904;2023-07-31T11:00:39;4.32;;;3.90;;
11839;SDS011;5979;50.800;4.904;2023-07-31T11:05:43;5.57;;;4.40;;
11839;SDS011;5979;50.800;4.904;2023-07-31T11:08:23;4.60;;;4.03;;
11839;SDS011;5979;50.800;4.904;2023-07-31T11:13:28;4.32;;;3.90;;
11839;SDS011;5979;50.800;4.904;2023-07-31T11:15:54;5.13;;;3.83;;
11839;SDS011;5979;50.800;4.904;2023-07-31T11:18:20;7.53;;;3.90;;
11839;SDS011;5979;50.800;4.904;2023-07-31T11:20:45;4.30;;;3.70;;
11839;SDS011;5979;50.800;4.904;2023-07-31T11:23:12;5.40;;;4.13;;
11839;SDS011;5979;50.800;4.904;2023-07-31T11:25:38;4.13;;;3.58;;
11839;SDS011;5979;50.800;4.904;2023-07-31T11:28:07;4.57;;;3.88;;
11839;SDS011;5979;50.800;4.904;2023-07-31T11:30:35;5.18;;;3.50;;
11839;SDS011;5979;50.800;4.904;2023-07-31T11:33:04;5.95;;;3.67;;
11839;SDS011;5979;50.800;4.904;2023-07-31T11:35:31;4.32;;;3.90;;
11839;SDS011;5979;50.800;4.904;2023-07-31T11:37:58;7.10;;;3.90;;
11839;SDS011;5979;50.800;4.904;2023-07-31T11:40:24;6.00;;;3.80;;
11839;SDS011;5979;50.800;4.904;2023-07-31T11:42:57;8.82;;;3.88;;
11839;SDS011;5979;50.800;4.904;2023-07-31T11:45:24;5.07;;;3.65;;
11839;SDS011;5979;50.800;4.904;2023-07-31T11:47:54;4.85;;;3.67;;
11839;SDS011;5979;50.800;4.904;2023-07-31T11:50:21;4.43;;;3.72;;
11839;SDS011;5979;50.800;4.904;2023-07-31T11:52:47;9.38;;;4.00;;
11839;SDS011;5979;50.800;4.904;2023-07-31T11:55:17;7.53;;;4.55;;
11839;SDS011;5979;50.800;4.904;2023-07-31T11:57:43;5.47;;;3.80;;
11839;SDS011;5979;50.800;4.904;2023-07-31T12:00:11;7.15;;;3.67;;
11839;SDS011;5979;50.800;4.904;2023-07-31T12:02:39;5.15;;;3.58;;
11839;SDS011;5979;50.800;4.904;2023-07-31T12:05:09;4.15;;;3.75;;
11839;SDS011;5979;50.800;4.904;2023-07-31T12:07:55;6.63;;;3.95;;
11839;SDS011;5979;50.800;4.904;2023-07-31T12:10:28;6.85;;;4.03;;
11839;SDS011;5979;50.800;4.904;2023-07-31T12:13:02;6.03;;;3.40;;
11839;SDS011;5979;50.800;4.904;2023-07-31T12:15:33;5.90;;;3.90;;
11839;SDS011;5979;50.800;4.904;2023-07-31T12:18:07;7.85;;;3.90;;
11839;SDS011;5979;50.800;4.904;2023-07-31T12:20:40;5.75;;;4.05;;
11839;SDS011;5979;50.800;4.904;2023-07-31T12:23:12;5.80;;;3.65;;
11839;SDS011;5979;50.800;4.904;2023-07-31T12:26:14;6.25;;;3.58;;
11839;SDS011;5979;50.800;4.904;2023-07-31T12:28:48;6.18;;;3.92;;
11839;SDS011;5979;50.800;4.904;2023-07-31T12:31:15;4.22;;;3.83;;
11839;SDS011;5979;50.800;4.904;2023-07-31T12:33:43;8.65;;;3.83;;
11839;SDS011;5979;50.800;4.904;2023-07-31T12:36:10;5.28;;;4.22;;
11839;SDS011;5979;50.800;4.904;2023-07-31T12:38:36;4.50;;;3.75;;
11839;SDS011;5979;50.800;4.904;2023-07-31T12:41:02;6.13;;;3.80;;
11839;SDS011;5979;50.800;4.904;2023-07-31T12:43:28;6.70;;;4.30;;
11839;SDS011;5979;50.800;4.904;2023-07-31T12:45:54;5.75;;;4.20;;
11839;SDS011;5979;50.800;4.904;2023-07-31T12:48:21;6.07;;;3.78;;
11839;SDS011;5979;50.800;4.904;2023-07-31T12:50:47;9.88;;;4.18;;
11839;SDS011;5979;50.800;4.904;2023-07-31T12:53:13;7.72;;;3.92;;
11839;SDS011;5979;50.800;4.904;2023-07-31T12:55:39;6.38;;;4.22;;
11839;SDS011;5979;50.800;4.904;2023-07-31T12:58:05;8.40;;;4.35;;
11839;SDS011;5979;50.800;4.904;2023-07-31T13:00:31;4.63;;;3.90;;
11839;SDS011;5979;50.800;4.904;2023-07-31T13:02:56;6.93;;;4.53;;
11839;SDS011;5979;50.800;4.904;2023-07-31T13:05:22;4.97;;;4.00;;
11839;SDS011;5979;50.800;4.904;2023-07-31T13:07:48;7.22;;;4.47;;
11839;SDS011;5979;50.800;4.904;2023-07-31T13:10:14;4.63;;;3.65;;
11839;SDS011;5979;50.800;4.904;2023-07-31T13:12:39;12.80;;;4.88;;
11839;SDS011;5979;50.800;4.904;2023-07-31T13:15:06;6.30;;;4.20;;
11839;SDS011;5979;50.800;4.904;2023-07-31T13:17:32;7.30;;;4.75;;
11839;SDS011;5979;50.800;4.904;2023-07-31T13:19:58;7.10;;;4.55;;
11839;SDS011;5979;50.800;4.904;2023-07-31T13:22:24;6.15;;;4.45;;
11839;SDS011;5979;50.800;4.904;2023-07-31T13:24:50;6.40;;;4.60;;
11839;SDS011;5979;50.800;4.904;2023-07-31T13:27:15;9.82;;;4.78;;
11839;SDS011;5979;50.800;4.904;2023-07-31T13:29:43;6.60;;;3.95;;
11839;SDS011;5979;50.800;4.904;2023-07-31T13:32:09;10.20;;;4.88;;
11839;SDS011;5979;50.800;4.904;2023-07-31T13:34:35;5.65;;;4.38;;
11839;SDS011;5979;50.800;4.904;2023-07-31T13:37:01;3.78;;;3.47;;
11839;SDS011;5979;50.800;4.904;2023-07-31T13:39:26;4.50;;;3.70;;
11839;SDS011;5979;50.800;4.904;2023-07-31T13:41:52;5.10;;;3.65;;
11839;SDS011;5979;50.800;4.904;2023-07-31T13:44:18;3.67;;;3.38;;
11839;SDS011;5979;50.800;4.904;2023-07-31T13:46:43;5.75;;;3.45;;
11839;SDS011;5979;50.800;4.904;2023-07-31T13:49:09;4.45;;;3.42;;
11839;SDS011;5979;50.800;4.904;2023-07-31T13:51:35;3.90;;;2.90;;
11839;SDS011;5979;50.800;4.904;2023-07-31T13:54:01;4.72;;;3.08;;
11839;SDS011;5979;50.800;4.904;2023-07-31T13:56:26;3.47;;;2.85;;
11839;SDS011;5979;50.800;4.904;2023-07-31T13:58:52;5.40;;;3.20;;
11839;SDS011;5979;50.800;4.904;2023-07-31T14:01:18;3.45;;;3.10;;
11839;SDS011;5979;50.800;4.904;2023-07-31T14:03:43;3.58;;;3.28;;
11839;SDS011;5979;50.800;4.904;2023-07-31T14:06:09;3.70;;;2.60;;
11839;SDS011;5979;50.800;4.904;2023-07-31T14:08:35;3.83;;;2.97;;
11839;SDS011;5979;50.800;4.904;2023-07-31T14:11:00;4.88;;;2.50;;
11839;SDS011;5979;50.800;4.904;2023-07-31T14:13:26;2.25;;;2.05;;
11839;SDS011;5979;50.800;4.904;2023-07-31T14:15:52;3.13;;;2.22;;
11839;SDS011;5979;50.800;4.904;2023-07-31T14:18:18;2.53;;;2.33;;
11839;SDS011;5979;50.800;4.904;2023-07-31T14:20:44;2.50;;;2.30;;
11839;SDS011;5979;50.800;4.904;2023-07-31T14:23:09;2.95;;;2.30;;
11839;SDS011;5979;50.800;4.904;2023-07-31T14:25:35;3.20;;;2.47;;
11839;SDS011;5979;50.800;4.904;2023-07-31T14:28:01;3.53;;;2.47;;
11839;SDS011;5979;50.800;4.904;2023-07-31T14:30:27;2.75;;;2.33;;
11839;SDS011;5979;50.800;4.904;2023-07-31T14:32:53;2.67;;;2.47;;
11839;SDS011;5979;50.800;4.904;2023-07-31T14:35:18;3.58;;;2.58;;
11839;SDS011;5979;50.800;4.904;2023-07-31T14:37:44;3.25;;;2.30;;
11839;SDS011;5979;50.800;4.904;2023-07-31T14:40:11;4.43;;;2.58;;
11839;SDS011;5979;50.800;4.904;2023-07-31T14:42:38;2.92;;;2.72;;
11839;SDS011;5979;50.800;4.904;2023-07-31T14:45:04;2.60;;;2.40;;
11839;SDS011;5979;50.800;4.904;2023-07-31T14:47:32;2.90;;;2.45;;
11839;SDS011;5979;50.800;4.904;2023-07-31T14:49:58;2.70;;;2.42;;
11839;SDS011;5979;50.800;4.904;2023-07-31T14:52:25;2.60;;;2.40;;
11839;SDS011;5979;50.800;4.904;2023-07-31T14:54:51;2.38;;;2.17;;
11839;SDS011;5979;50.800;4.904;2023-07-31T14:57:16;3.97;;;2.78;;
11839;SDS011;5979;50.800;4.904;2023-07-31T14:59:42;2.97;;;2.60;;
11839;SDS011;5979;50.800;4.904;2023-07-31T15:02:08;2.90;;;2.53;;
11839;SDS011;5979;50.800;4.904;2023-07-31T15:04:34;2.35;;;2.00;;
11839;SDS011;5979;50.800;4.904;2023-07-31T15:07:00;2.95;;;2.08;;
11839;SDS011;5979;50.800;4.904;2023-07-31T15:09:26;2.42;;;2.10;;
11839;SDS011;5979;50.800;4.904;2023-07-31T15:11:52;2.28;;;2.17;;
11839;SDS011;5979;50.800;4.904;2023-07-31T15:14:18;2.60;;;2.40;;
11839;SDS011;5979;50.800;4.904;2023-07-31T15:16:44;2.13;;;1.98;;